Chan Gurney Municipal Airport
KYKN : now visible

Airfield :











YOU CAN JOIN US ON...

 
LOGIN :

Register | Disclaimer

   EN    FR    IT 

 









Legend :    VFR   Marginal VFR   IFR   Intensive IFR   Very Intensive IFR
Visi :
Ceiling :
>= 8 km
>= 3000ft
5 to 8 km
1000 to 3000 ft
1500m to 5 km
500 to 1000 ft
800 to 1500m
200 to 500 ft
< 800m
< 200 ft
Symbols :   Thunderstorms  Fog  Heavy snow  Heavy precipitations  Wind > 20 kt







- Airport Elevation : 1306 ft


KYKN - Chan Gurney Municipal

CURRENT METAR :
  • 181056Z AUTO 22008KT 10SM CLR 23/18 A2981 RMK AO2 SLP093 T02280183

EXPIRED METARs :
  • 180956Z AUTO 22012G18KT 10SM CLR 24/19 A2979 RMK AO2 SLP088 T02390189
  • 180856Z AUTO 20015G24KT 10SM CLR 24/19 A2976 RMK AO2 PK WND 18027/0831 SLP076 T02440189 58005

TAF N/A
No reported NOTAMs for that airfield.



MET'MAP, your aeronautical weather chart ! - Copyright ORBIFLY December 2007 - Disclaimer

ORBIFLY MET'MAP TEAM :

Programming & Development : Alexandra Zaïnal
Concept & Development : Baudouin d'Aumeries
Co-Development & Prog : Marc-Olivier Méhu
Technical & hardware support : Manuel Goepfert

Contact : metmap@orbifly.com




SOURCES & CREDITS :

   NOAA       Earth
Advisory